sensor_id;sensor_type;location;lat;lon;timestamp;temperature;humidity
45619;DHT22;31343;47.520;19.144;2023-04-24T00:01:00;14.40;89.30
45619;DHT22;31343;47.520;19.144;2023-04-24T00:03:27;14.40;89.80
45619;DHT22;31343;47.520;19.144;2023-04-24T00:05:54;14.30;90.10
45619;DHT22;31343;47.520;19.144;2023-04-24T00:08:19;14.30;90.30
45619;DHT22;31343;47.520;19.144;2023-04-24T00:10:45;14.30;90.50
45619;DHT22;31343;47.520;19.144;2023-04-24T00:13:12;14.30;90.90
45619;DHT22;31343;47.520;19.144;2023-04-24T00:15:38;14.20;91.20
45619;DHT22;31343;47.520;19.144;2023-04-24T00:18:03;14.40;91.60
45619;DHT22;31343;47.520;19.144;2023-04-24T00:20:29;14.20;92.20
45619;DHT22;31343;47.520;19.144;2023-04-24T00:22:55;14.30;92.00
45619;DHT22;31343;47.520;19.144;2023-04-24T00:25:21;14.30;92.60
45619;DHT22;31343;47.520;19.144;2023-04-24T00:27:47;14.40;92.80
45619;DHT22;31343;47.520;19.144;2023-04-24T00:30:13;14.30;92.70
45619;DHT22;31343;47.520;19.144;2023-04-24T00:32:39;14.40;91.30
45619;DHT22;31343;47.520;19.144;2023-04-24T00:35:05;14.50;92.70
45619;DHT22;31343;47.520;19.144;2023-04-24T00:37:31;14.50;92.40
45619;DHT22;31343;47.520;19.144;2023-04-24T00:39:57;14.50;91.90
45619;DHT22;31343;47.520;19.144;2023-04-24T00:42:23;14.60;91.60
45619;DHT22;31343;47.520;19.144;2023-04-24T00:44:49;14.60;91.90
45619;DHT22;31343;47.520;19.144;2023-04-24T00:47:15;14.70;91.80
45619;DHT22;31343;47.520;19.144;2023-04-24T00:49:41;14.60;91.20
45619;DHT22;31343;47.520;19.144;2023-04-24T00:52:07;14.60;90.70
45619;DHT22;31343;47.520;19.144;2023-04-24T00:54:35;14.70;90.70
45619;DHT22;31343;47.520;19.144;2023-04-24T00:57:02;14.70;90.50
45619;DHT22;31343;47.520;19.144;2023-04-24T00:59:29;14.80;90.40
45619;DHT22;31343;47.520;19.144;2023-04-24T01:01:55;14.80;90.50
45619;DHT22;31343;47.520;19.144;2023-04-24T01:04:21;14.60;90.70
45619;DHT22;31343;47.520;19.144;2023-04-24T01:06:48;14.60;90.70
45619;DHT22;31343;47.520;19.144;2023-04-24T01:09:16;14.60;90.90
45619;DHT22;31343;47.520;19.144;2023-04-24T01:11:42;14.50;91.00
45619;DHT22;31343;47.520;19.144;2023-04-24T01:14:10;14.50;91.20
45619;DHT22;31343;47.520;19.144;2023-04-24T01:16:35;14.40;91.40
45619;DHT22;31343;47.520;19.144;2023-04-24T01:19:05;14.40;91.50
45619;DHT22;31343;47.520;19.144;2023-04-24T01:21:36;14.40;91.60
45619;DHT22;31343;47.520;19.144;2023-04-24T01:24:04;14.40;91.90
45619;DHT22;31343;47.520;19.144;2023-04-24T01:26:30;14.20;92.10
45619;DHT22;31343;47.520;19.144;2023-04-24T01:28:56;14.20;92.20
45619;DHT22;31343;47.520;19.144;2023-04-24T01:31:22;14.30;92.30
45619;DHT22;31343;47.520;19.144;2023-04-24T01:33:49;14.20;92.40
45619;DHT22;31343;47.520;19.144;2023-04-24T01:36:16;14.10;92.70
45619;DHT22;31343;47.520;19.144;2023-04-24T01:38:42;14.10;93.00
45619;DHT22;31343;47.520;19.144;2023-04-24T01:41:08;14.10;92.90
45619;DHT22;31343;47.520;19.144;2023-04-24T01:43:33;14.10;93.20
45619;DHT22;31343;47.520;19.144;2023-04-24T01:45:59;14.10;93.30
45619;DHT22;31343;47.520;19.144;2023-04-24T01:48:25;14.00;93.50
45619;DHT22;31343;47.520;19.144;2023-04-24T01:50:51;14.10;93.70
45619;DHT22;31343;47.520;19.144;2023-04-24T01:53:17;14.10;93.60
45619;DHT22;31343;47.520;19.144;2023-04-24T01:55:42;14.10;93.50
45619;DHT22;31343;47.520;19.144;2023-04-24T01:58:08;14.10;93.50
45619;DHT22;31343;47.520;19.144;2023-04-24T02:00:34;14.00;93.70
45619;DHT22;31343;47.520;19.144;2023-04-24T02:03:00;14.00;94.00
45619;DHT22;31343;47.520;19.144;2023-04-24T02:05:27;13.80;94.50
45619;DHT22;31343;47.520;19.144;2023-04-24T02:07:54;13.80;94.70
45619;DHT22;31343;47.520;19.144;2023-04-24T02:10:20;13.60;96.10
45619;DHT22;31343;47.520;19.144;2023-04-24T02:12:45;13.40;98.50
45619;DHT22;31343;47.520;19.144;2023-04-24T02:15:11;13.00;99.90
45619;DHT22;31343;47.520;19.144;2023-04-24T02:17:38;12.70;99.90
45619;DHT22;31343;47.520;19.144;2023-04-24T02:20:05;12.50;99.90
45619;DHT22;31343;47.520;19.144;2023-04-24T02:22:31;12.60;99.90
45619;DHT22;31343;47.520;19.144;2023-04-24T02:24:56;12.60;99.90
45619;DHT22;31343;47.520;19.144;2023-04-24T02:27:22;12.50;99.90
45619;DHT22;31343;47.520;19.144;2023-04-24T02:29:48;12.60;99.90
45619;DHT22;31343;47.520;19.144;2023-04-24T02:32:14;12.60;99.90
45619;DHT22;31343;47.520;19.144;2023-04-24T02:34:41;12.60;99.90
45619;DHT22;31343;47.520;19.144;2023-04-24T02:37:06;12.70;99.90
45619;DHT22;31343;47.520;19.144;2023-04-24T02:39:32;12.80;99.90
45619;DHT22;31343;47.520;19.144;2023-04-24T02:41:58;12.90;99.90
45619;DHT22;31343;47.520;19.144;2023-04-24T02:44:24;12.80;99.90
45619;DHT22;31343;47.520;19.144;2023-04-24T02:46:50;12.80;99.90
45619;DHT22;31343;47.520;19.144;2023-04-24T02:49:16;12.80;99.90
45619;DHT22;31343;47.520;19.144;2023-04-24T02:51:41;12.90;99.90
45619;DHT22;31343;47.520;19.144;2023-04-24T02:54:11;12.90;99.90
45619;DHT22;31343;47.520;19.144;2023-04-24T02:56:37;13.00;99.90
45619;DHT22;31343;47.520;19.144;2023-04-24T02:59:02;12.90;99.90
45619;DHT22;31343;47.520;19.144;2023-04-24T03:01:28;12.90;99.90
45619;DHT22;31343;47.520;19.144;2023-04-24T03:03:54;12.80;99.90
45619;DHT22;31343;47.520;19.144;2023-04-24T03:06:20;12.90;99.90
45619;DHT22;31343;47.520;19.144;2023-04-24T03:08:46;12.90;99.90
45619;DHT22;31343;47.520;19.144;2023-04-24T03:11:12;13.00;99.90
45619;DHT22;31343;47.520;19.144;2023-04-24T03:13:37;13.00;99.90
45619;DHT22;31343;47.520;19.144;2023-04-24T03:16:03;13.00;99.90
45619;DHT22;31343;47.520;19.144;2023-04-24T03:18:29;13.10;99.90
45619;DHT22;31343;47.520;19.144;2023-04-24T03:20:55;13.00;99.90
45619;DHT22;31343;47.520;19.144;2023-04-24T03:23:20;13.00;99.90
45619;DHT22;31343;47.520;19.144;2023-04-24T03:25:46;13.00;99.90
45619;DHT22;31343;47.520;19.144;2023-04-24T03:28:14;13.00;99.90
45619;DHT22;31343;47.520;19.144;2023-04-24T03:30:39;13.10;99.90
45619;DHT22;31343;47.520;19.144;2023-04-24T03:33:05;13.10;99.90
45619;DHT22;31343;47.520;19.144;2023-04-24T03:35:31;13.10;99.90
45619;DHT22;31343;47.520;19.144;2023-04-24T03:37:57;13.00;99.90
45619;DHT22;31343;47.520;19.144;2023-04-24T03:40:22;12.90;99.90
45619;DHT22;31343;47.520;19.144;2023-04-24T03:42:48;12.70;99.90
45619;DHT22;31343;47.520;19.144;2023-04-24T03:45:14;12.70;99.90
45619;DHT22;31343;47.520;19.144;2023-04-24T03:47:40;12.70;99.90
45619;DHT22;31343;47.520;19.144;2023-04-24T03:50:06;12.70;99.90
45619;DHT22;31343;47.520;19.144;2023-04-24T03:52:31;12.70;99.90
45619;DHT22;31343;47.520;19.144;2023-04-24T03:54:57;12.80;99.90
45619;DHT22;31343;47.520;19.144;2023-04-24T03:57:23;12.80;99.90
45619;DHT22;31343;47.520;19.144;2023-04-24T03:59:48;12.80;99.90
45619;DHT22;31343;47.520;19.144;2023-04-24T04:02:14;12.70;99.90
45619;DHT22;31343;47.520;19.144;2023-04-24T04:04:40;12.70;99.90
45619;DHT22;31343;47.520;19.144;2023-04-24T04:07:06;12.70;99.90
45619;DHT22;31343;47.520;19.144;2023-04-24T04:09:32;12.70;99.90
45619;DHT22;31343;47.520;19.144;2023-04-24T04:11:58;12.80;99.90
45619;DHT22;31343;47.520;19.144;2023-04-24T04:14:25;12.80;99.90
45619;DHT22;31343;47.520;19.144;2023-04-24T04:16:51;12.90;99.90
45619;DHT22;31343;47.520;19.144;2023-04-24T04:19:17;12.80;99.90
45619;DHT22;31343;47.520;19.144;2023-04-24T04:21:42;12.80;99.90
45619;DHT22;31343;47.520;19.144;2023-04-24T04:24:08;12.90;99.90
45619;DHT22;31343;47.520;19.144;2023-04-24T04:26:35;12.90;99.90
45619;DHT22;31343;47.520;19.144;2023-04-24T04:29:00;12.90;99.90
45619;DHT22;31343;47.520;19.144;2023-04-24T04:31:26;12.90;99.90
45619;DHT22;31343;47.520;19.144;2023-04-24T04:33:52;12.90;99.90
45619;DHT22;31343;47.520;19.144;2023-04-24T04:36:17;13.00;99.90
45619;DHT22;31343;47.520;19.144;2023-04-24T04:38:44;13.10;99.90
45619;DHT22;31343;47.520;19.144;2023-04-24T04:41:10;13.20;99.90
45619;DHT22;31343;47.520;19.144;2023-04-24T04:43:36;13.20;99.90
45619;DHT22;31343;47.520;19.144;2023-04-24T04:46:03;13.30;99.90
45619;DHT22;31343;47.520;19.144;2023-04-24T04:48:29;13.30;99.90
45619;DHT22;31343;47.520;19.144;2023-04-24T04:50:57;13.20;99.90
45619;DHT22;31343;47.520;19.144;2023-04-24T04:53:23;13.30;99.90
45619;DHT22;31343;47.520;19.144;2023-04-24T04:55:49;13.40;99.90
45619;DHT22;31343;47.520;19.144;2023-04-24T04:58:15;13.40;99.90
45619;DHT22;31343;47.520;19.144;2023-04-24T05:00:41;13.40;99.90
45619;DHT22;31343;47.520;19.144;2023-04-24T05:03:06;13.40;99.90
45619;DHT22;31343;47.520;19.144;2023-04-24T05:05:32;13.50;99.90
45619;DHT22;31343;47.520;19.144;2023-04-24T05:07:58;13.50;99.90
45619;DHT22;31343;47.520;19.144;2023-04-24T05:10:24;13.50;99.90
45619;DHT22;31343;47.520;19.144;2023-04-24T05:12:49;13.40;99.90
45619;DHT22;31343;47.520;19.144;2023-04-24T05:15:15;13.40;99.90
45619;DHT22;31343;47.520;19.144;2023-04-24T05:17:41;13.50;99.90
45619;DHT22;31343;47.520;19.144;2023-04-24T05:20:07;13.60;99.90
45619;DHT22;31343;47.520;19.144;2023-04-24T05:22:33;13.60;99.90
45619;DHT22;31343;47.520;19.144;2023-04-24T05:24:59;13.70;99.90
45619;DHT22;31343;47.520;19.144;2023-04-24T05:27:25;13.70;99.90
45619;DHT22;31343;47.520;19.144;2023-04-24T05:29:50;13.70;99.90
45619;DHT22;31343;47.520;19.144;2023-04-24T05:32:16;13.70;99.90
45619;DHT22;31343;47.520;19.144;2023-04-24T05:34:42;13.70;99.90
45619;DHT22;31343;47.520;19.144;2023-04-24T05:37:08;13.70;99.90
45619;DHT22;31343;47.520;19.144;2023-04-24T05:39:36;13.70;99.90
45619;DHT22;31343;47.520;19.144;2023-04-24T05:42:02;13.80;99.90
45619;DHT22;31343;47.520;19.144;2023-04-24T05:44:30;13.90;99.90
45619;DHT22;31343;47.520;19.144;2023-04-24T05:46:56;14.20;99.90
45619;DHT22;31343;47.520;19.144;2023-04-24T05:49:22;14.40;99.90
45619;DHT22;31343;47.520;19.144;2023-04-24T05:51:48;14.50;99.90
45619;DHT22;31343;47.520;19.144;2023-04-24T05:54:14;14.50;99.90
45619;DHT22;31343;47.520;19.144;2023-04-24T05:56:40;14.50;99.90
45619;DHT22;31343;47.520;19.144;2023-04-24T05:59:06;14.40;99.90
45619;DHT22;31343;47.520;19.144;2023-04-24T06:01:33;14.30;99.90
45619;DHT22;31343;47.520;19.144;2023-04-24T06:03:59;14.10;99.90
45619;DHT22;31343;47.520;19.144;2023-04-24T06:06:24;14.00;99.90
45619;DHT22;31343;47.520;19.144;2023-04-24T06:08:51;14.00;99.90
45619;DHT22;31343;47.520;19.144;2023-04-24T06:11:17;13.90;99.90
45619;DHT22;31343;47.520;19.144;2023-04-24T06:13:43;13.90;99.90
45619;DHT22;31343;47.520;19.144;2023-04-24T06:16:09;14.00;99.90
45619;DHT22;31343;47.520;19.144;2023-04-24T06:18:34;14.00;99.90
45619;DHT22;31343;47.520;19.144;2023-04-24T06:21:00;14.20;99.90
45619;DHT22;31343;47.520;19.144;2023-04-24T06:23:26;14.30;99.90
45619;DHT22;31343;47.520;19.144;2023-04-24T06:25:52;14.40;99.90
45619;DHT22;31343;47.520;19.144;2023-04-24T06:28:18;14.40;99.90
45619;DHT22;31343;47.520;19.144;2023-04-24T06:30:43;14.50;99.90
45619;DHT22;31343;47.520;19.144;2023-04-24T06:33:09;14.70;99.90
45619;DHT22;31343;47.520;19.144;2023-04-24T06:35:36;14.90;99.90
45619;DHT22;31343;47.520;19.144;2023-04-24T06:38:03;15.10;99.90
45619;DHT22;31343;47.520;19.144;2023-04-24T06:40:29;14.70;99.90
45619;DHT22;31343;47.520;19.144;2023-04-24T06:42:55;14.40;99.90
45619;DHT22;31343;47.520;19.144;2023-04-24T06:45:21;14.30;99.90
45619;DHT22;31343;47.520;19.144;2023-04-24T06:47:47;14.20;99.90
45619;DHT22;31343;47.520;19.144;2023-04-24T06:50:13;13.90;99.90
45619;DHT22;31343;47.520;19.144;2023-04-24T06:52:38;13.50;99.90
45619;DHT22;31343;47.520;19.144;2023-04-24T06:55:05;13.60;99.90
45619;DHT22;31343;47.520;19.144;2023-04-24T06:57:31;13.60;99.90
45619;DHT22;31343;47.520;19.144;2023-04-24T06:59:57;13.50;99.90
45619;DHT22;31343;47.520;19.144;2023-04-24T07:02:23;13.60;99.90
45619;DHT22;31343;47.520;19.144;2023-04-24T07:04:48;13.60;99.90
45619;DHT22;31343;47.520;19.144;2023-04-24T07:07:14;13.60;99.90
45619;DHT22;31343;47.520;19.144;2023-04-24T07:09:41;13.70;99.90
45619;DHT22;31343;47.520;19.144;2023-04-24T07:12:08;13.70;99.90
45619;DHT22;31343;47.520;19.144;2023-04-24T07:14:36;13.90;99.90
45619;DHT22;31343;47.520;19.144;2023-04-24T07:17:03;13.90;99.90
45619;DHT22;31343;47.520;19.144;2023-04-24T07:19:29;14.00;99.90
45619;DHT22;31343;47.520;19.144;2023-04-24T07:21:55;14.00;99.90
45619;DHT22;31343;47.520;19.144;2023-04-24T07:24:21;14.20;99.90
45619;DHT22;31343;47.520;19.144;2023-04-24T07:26:47;14.10;99.90
45619;DHT22;31343;47.520;19.144;2023-04-24T07:29:13;14.10;99.90
45619;DHT22;31343;47.520;19.144;2023-04-24T07:31:39;14.10;99.90
45619;DHT22;31343;47.520;19.144;2023-04-24T07:34:06;14.00;99.90
45619;DHT22;31343;47.520;19.144;2023-04-24T07:36:32;14.00;99.90
45619;DHT22;31343;47.520;19.144;2023-04-24T07:38:58;13.90;99.90
45619;DHT22;31343;47.520;19.144;2023-04-24T07:41:24;13.90;99.90
45619;DHT22;31343;47.520;19.144;2023-04-24T07:43:50;14.00;99.90
45619;DHT22;31343;47.520;19.144;2023-04-24T07:46:16;14.00;99.90
45619;DHT22;31343;47.520;19.144;2023-04-24T07:48:42;14.10;99.90
45619;DHT22;31343;47.520;19.144;2023-04-24T07:51:08;14.30;99.90
45619;DHT22;31343;47.520;19.144;2023-04-24T07:53:36;14.40;99.90
45619;DHT22;31343;47.520;19.144;2023-04-24T07:56:02;14.50;99.90
45619;DHT22;31343;47.520;19.144;2023-04-24T07:58:27;14.50;99.90
45619;DHT22;31343;47.520;19.144;2023-04-24T08:00:53;14.50;99.90
45619;DHT22;31343;47.520;19.144;2023-04-24T08:03:19;14.60;99.90
45619;DHT22;31343;47.520;19.144;2023-04-24T08:05:45;14.70;99.90
45619;DHT22;31343;47.520;19.144;2023-04-24T08:08:11;14.70;99.90
45619;DHT22;31343;47.520;19.144;2023-04-24T08:10:36;14.80;99.90
45619;DHT22;31343;47.520;19.144;2023-04-24T08:13:02;15.00;99.90
45619;DHT22;31343;47.520;19.144;2023-04-24T08:15:28;15.00;99.90
45619;DHT22;31343;47.520;19.144;2023-04-24T08:17:54;15.00;99.90
45619;DHT22;31343;47.520;19.144;2023-04-24T08:20:19;15.20;99.90
45619;DHT22;31343;47.520;19.144;2023-04-24T08:22:45;15.50;99.90
45619;DHT22;31343;47.520;19.144;2023-04-24T08:25:12;15.70;99.90
45619;DHT22;31343;47.520;19.144;2023-04-24T08:27:38;15.70;99.90
45619;DHT22;31343;47.520;19.144;2023-04-24T08:30:06;16.00;99.90
45619;DHT22;31343;47.520;19.144;2023-04-24T08:32:31;16.10;99.90
45619;DHT22;31343;47.520;19.144;2023-04-24T08:34:58;16.40;99.90
45619;DHT22;31343;47.520;19.144;2023-04-24T08:37:25;16.30;99.90
45619;DHT22;31343;47.520;19.144;2023-04-24T08:39:51;15.90;99.90
45619;DHT22;31343;47.520;19.144;2023-04-24T08:42:18;15.80;99.90
45619;DHT22;31343;47.520;19.144;2023-04-24T08:44:44;15.90;99.90
45619;DHT22;31343;47.520;19.144;2023-04-24T08:47:11;15.80;99.90
45619;DHT22;31343;47.520;19.144;2023-04-24T08:49:38;15.90;99.90
45619;DHT22;31343;47.520;19.144;2023-04-24T08:52:05;16.20;99.90
45619;DHT22;31343;47.520;19.144;2023-04-24T08:54:33;16.50;99.90
45619;DHT22;31343;47.520;19.144;2023-04-24T08:57:00;16.80;99.90
45619;DHT22;31343;47.520;19.144;2023-04-24T08:59:27;17.00;99.90
45619;DHT22;31343;47.520;19.144;2023-04-24T09:01:55;17.10;99.90
45619;DHT22;31343;47.520;19.144;2023-04-24T09:04:22;17.10;99.90
45619;DHT22;31343;47.520;19.144;2023-04-24T09:06:51;16.90;99.90
45619;DHT22;31343;47.520;19.144;2023-04-24T09:09:17;16.80;99.90
45619;DHT22;31343;47.520;19.144;2023-04-24T09:11:44;17.10;99.90
45619;DHT22;31343;47.520;19.144;2023-04-24T09:14:11;17.50;99.90
45619;DHT22;31343;47.520;19.144;2023-04-24T09:16:37;17.70;99.90
45619;DHT22;31343;47.520;19.144;2023-04-24T09:19:03;17.70;99.90
45619;DHT22;31343;47.520;19.144;2023-04-24T09:21:33;17.70;99.90
45619;DHT22;31343;47.520;19.144;2023-04-24T09:24:01;17.50;99.90
45619;DHT22;31343;47.520;19.144;2023-04-24T09:26:31;17.80;99.90
45619;DHT22;31343;47.520;19.144;2023-04-24T09:28:58;18.10;99.70
45619;DHT22;31343;47.520;19.144;2023-04-24T09:31:27;18.30;99.90
45619;DHT22;31343;47.520;19.144;2023-04-24T09:34:01;18.50;99.90
45619;DHT22;31343;47.520;19.144;2023-04-24T09:36:43;18.60;99.70
45619;DHT22;31343;47.520;19.144;2023-04-24T09:39:15;18.80;99.90
45619;DHT22;31343;47.520;19.144;2023-04-24T09:41:48;18.90;98.90
45619;DHT22;31343;47.520;19.144;2023-04-24T09:44:16;19.00;98.10
45619;DHT22;31343;47.520;19.144;2023-04-24T09:46:44;19.20;98.30
45619;DHT22;31343;47.520;19.144;2023-04-24T09:49:14;18.90;98.10
45619;DHT22;31343;47.520;19.144;2023-04-24T09:51:42;18.60;98.00
45619;DHT22;31343;47.520;19.144;2023-04-24T09:54:19;18.50;98.60
45619;DHT22;31343;47.520;19.144;2023-04-24T09:56:48;18.60;98.40
45619;DHT22;31343;47.520;19.144;2023-04-24T09:59:15;18.50;99.20
45619;DHT22;31343;47.520;19.144;2023-04-24T10:01:41;18.50;99.60
45619;DHT22;31343;47.520;19.144;2023-04-24T10:06:47;18.70;98.90
45619;DHT22;31343;47.520;19.144;2023-04-24T10:09:15;18.70;98.70
45619;DHT22;31343;47.520;19.144;2023-04-24T10:11:45;18.70;97.70
45619;DHT22;31343;47.520;19.144;2023-04-24T10:14:14;18.70;98.10
45619;DHT22;31343;47.520;19.144;2023-04-24T10:16:40;18.70;98.20
45619;DHT22;31343;47.520;19.144;2023-04-24T10:19:07;18.40;97.30
45619;DHT22;31343;47.520;19.144;2023-04-24T10:21:34;18.30;98.00
45619;DHT22;31343;47.520;19.144;2023-04-24T10:24:01;18.40;98.40
45619;DHT22;31343;47.520;19.144;2023-04-24T10:26:29;18.80;98.70
45619;DHT22;31343;47.520;19.144;2023-04-24T10:28:57;19.00;97.70
45619;DHT22;31343;47.520;19.144;2023-04-24T10:31:24;19.10;97.20
45619;DHT22;31343;47.520;19.144;2023-04-24T10:33:51;19.10;97.60
45619;DHT22;31343;47.520;19.144;2023-04-24T10:36:22;18.70;96.90
45619;DHT22;31343;47.520;19.144;2023-04-24T10:38:49;18.60;96.90
45619;DHT22;31343;47.520;19.144;2023-04-24T10:41:17;18.70;97.30
45619;DHT22;31343;47.520;19.144;2023-04-24T10:46:54;18.70;96.20
45619;DHT22;31343;47.520;19.144;2023-04-24T10:49:31;18.70;96.30
45619;DHT22;31343;47.520;19.144;2023-04-24T10:52:04;18.60;96.50
45619;DHT22;31343;47.520;19.144;2023-04-24T10:57:28;18.40;97.60
45619;DHT22;31343;47.520;19.144;2023-04-24T11:00:19;18.40;98.20
45619;DHT22;31343;47.520;19.144;2023-04-24T11:02:47;18.50;97.90
45619;DHT22;31343;47.520;19.144;2023-04-24T11:05:18;18.70;98.00
45619;DHT22;31343;47.520;19.144;2023-04-24T11:08:13;18.70;98.60
45619;DHT22;31343;47.520;19.144;2023-04-24T11:13:15;18.70;97.70
45619;DHT22;31343;47.520;19.144;2023-04-24T11:15:42;18.60;98.90
45619;DHT22;31343;47.520;19.144;2023-04-24T11:18:13;18.50;98.70
45619;DHT22;31343;47.520;19.144;2023-04-24T11:20:44;18.60;99.00
45619;DHT22;31343;47.520;19.144;2023-04-24T11:23:12;18.60;98.50
45619;DHT22;31343;47.520;19.144;2023-04-24T11:25:38;18.60;98.20
45619;DHT22;31343;47.520;19.144;2023-04-24T11:28:05;18.70;99.30
45619;DHT22;31343;47.520;19.144;2023-04-24T11:30:32;19.20;97.90
45619;DHT22;31343;47.520;19.144;2023-04-24T11:33:05;19.20;98.20
45619;DHT22;31343;47.520;19.144;2023-04-24T11:35:39;19.00;97.70
45619;DHT22;31343;47.520;19.144;2023-04-24T11:38:06;18.90;98.40
45619;DHT22;31343;47.520;19.144;2023-04-24T11:40:32;18.90;98.60
45619;DHT22;31343;47.520;19.144;2023-04-24T11:42:59;19.00;98.40
45619;DHT22;31343;47.520;19.144;2023-04-24T11:45:31;19.10;98.40
45619;DHT22;31343;47.520;19.144;2023-04-24T11:47:57;19.10;98.90
45619;DHT22;31343;47.520;19.144;2023-04-24T11:50:25;19.30;98.50
45619;DHT22;31343;47.520;19.144;2023-04-24T11:52:52;19.10;98.80
45619;DHT22;31343;47.520;19.144;2023-04-24T11:57:52;19.00;99.60
45619;DHT22;31343;47.520;19.144;2023-04-24T12:00:23;18.80;99.50
45619;DHT22;31343;47.520;19.144;2023-04-24T12:02:50;19.00;99.90
45619;DHT22;31343;47.520;19.144;2023-04-24T12:05:28;19.10;99.50
45619;DHT22;31343;47.520;19.144;2023-04-24T12:07:56;19.20;99.80
45619;DHT22;31343;47.520;19.144;2023-04-24T12:10:24;19.40;99.20
45619;DHT22;31343;47.520;19.144;2023-04-24T12:12:50;19.60;99.00
45619;DHT22;31343;47.520;19.144;2023-04-24T12:15:18;19.50;98.90
45619;DHT22;31343;47.520;19.144;2023-04-24T12:17:44;19.20;99.40
45619;DHT22;31343;47.520;19.144;2023-04-24T12:20:11;18.90;99.90
45619;DHT22;31343;47.520;19.144;2023-04-24T12:22:49;18.90;99.90
45619;DHT22;31343;47.520;19.144;2023-04-24T12:25:16;18.70;99.90
45619;DHT22;31343;47.520;19.144;2023-04-24T12:27:46;18.70;99.90
45619;DHT22;31343;47.520;19.144;2023-04-24T12:30:16;19.00;99.90
45619;DHT22;31343;47.520;19.144;2023-04-24T12:32:43;19.10;98.00
45619;DHT22;31343;47.520;19.144;2023-04-24T12:35:10;19.10;98.20
45619;DHT22;31343;47.520;19.144;2023-04-24T12:37:36;19.00;98.30
45619;DHT22;31343;47.520;19.144;2023-04-24T12:40:07;19.00;98.70
45619;DHT22;31343;47.520;19.144;2023-04-24T12:42:34;18.90;99.50
45619;DHT22;31343;47.520;19.144;2023-04-24T12:45:06;18.90;99.80
45619;DHT22;31343;47.520;19.144;2023-04-24T12:47:34;18.90;99.90
45619;DHT22;31343;47.520;19.144;2023-04-24T12:50:00;18.70;99.90
45619;DHT22;31343;47.520;19.144;2023-04-24T12:52:29;18.60;99.90
45619;DHT22;31343;47.520;19.144;2023-04-24T12:55:00;18.40;99.90
45619;DHT22;31343;47.520;19.144;2023-04-24T12:57:28;18.30;99.90
45619;DHT22;31343;47.520;19.144;2023-04-24T12:59:55;18.40;99.90
45619;DHT22;31343;47.520;19.144;2023-04-24T13:02:22;18.30;99.90
45619;DHT22;31343;47.520;19.144;2023-04-24T13:04:48;18.30;99.90
45619;DHT22;31343;47.520;19.144;2023-04-24T13:07:14;18.30;99.90
45619;DHT22;31343;47.520;19.144;2023-04-24T13:09:41;18.10;99.90
45619;DHT22;31343;47.520;19.144;2023-04-24T13:12:08;18.00;99.90
45619;DHT22;31343;47.520;19.144;2023-04-24T13:14:35;18.20;99.90
45619;DHT22;31343;47.520;19.144;2023-04-24T13:17:01;17.80;99.90
45619;DHT22;31343;47.520;19.144;2023-04-24T13:19:27;17.60;99.90
45619;DHT22;31343;47.520;19.144;2023-04-24T13:21:54;17.70;99.90
45619;DHT22;31343;47.520;19.144;2023-04-24T13:24:21;17.60;99.90
45619;DHT22;31343;47.520;19.144;2023-04-24T13:26:50;17.50;99.90
45619;DHT22;31343;47.520;19.144;2023-04-24T13:29:16;17.50;99.90
45619;DHT22;31343;47.520;19.144;2023-04-24T13:31:42;17.40;99.90
45619;DHT22;31343;47.520;19.144;2023-04-24T13:34:08;17.40;99.90
45619;DHT22;31343;47.520;19.144;2023-04-24T13:36:33;17.30;99.90
45619;DHT22;31343;47.520;19.144;2023-04-24T13:38:59;17.30;99.90
45619;DHT22;31343;47.520;19.144;2023-04-24T13:41:25;17.30;99.90
45619;DHT22;31343;47.520;19.144;2023-04-24T13:43:51;17.30;99.90
45619;DHT22;31343;47.520;19.144;2023-04-24T13:46:16;17.30;99.90
45619;DHT22;31343;47.520;19.144;2023-04-24T13:48:42;17.00;99.90
45619;DHT22;31343;47.520;19.144;2023-04-24T13:51:08;16.50;99.90
45619;DHT22;31343;47.520;19.144;2023-04-24T13:53:33;16.20;99.90
45619;DHT22;31343;47.520;19.144;2023-04-24T13:56:03;15.90;99.90
45619;DHT22;31343;47.520;19.144;2023-04-24T13:58:29;15.80;99.90
45619;DHT22;31343;47.520;19.144;2023-04-24T14:00:55;15.80;99.90
45619;DHT22;31343;47.520;19.144;2023-04-24T14:03:21;15.90;99.90
45619;DHT22;31343;47.520;19.144;2023-04-24T14:05:47;15.90;99.90
45619;DHT22;31343;47.520;19.144;2023-04-24T14:08:12;15.90;99.90
45619;DHT22;31343;47.520;19.144;2023-04-24T14:10:38;16.00;99.90
45619;DHT22;31343;47.520;19.144;2023-04-24T14:13:04;15.90;99.90
45619;DHT22;31343;47.520;19.144;2023-04-24T14:15:29;16.00;99.90
45619;DHT22;31343;47.520;19.144;2023-04-24T14:17:55;15.80;99.90
45619;DHT22;31343;47.520;19.144;2023-04-24T14:20:21;15.60;99.90
45619;DHT22;31343;47.520;19.144;2023-04-24T14:22:47;15.50;99.90
45619;DHT22;31343;47.520;19.144;2023-04-24T14:25:12;15.40;99.90
45619;DHT22;31343;47.520;19.144;2023-04-24T14:27:38;15.30;99.90
45619;DHT22;31343;47.520;19.144;2023-04-24T14:30:06;15.30;99.90
45619;DHT22;31343;47.520;19.144;2023-04-24T14:32:32;15.30;99.90
45619;DHT22;31343;47.520;19.144;2023-04-24T14:34:58;15.20;99.90
45619;DHT22;31343;47.520;19.144;2023-04-24T14:37:23;15.30;99.90
45619;DHT22;31343;47.520;19.144;2023-04-24T14:39:49;15.30;99.90
45619;DHT22;31343;47.520;19.144;2023-04-24T14:42:15;15.30;99.90
45619;DHT22;31343;47.520;19.144;2023-04-24T14:44:43;15.30;99.90
45619;DHT22;31343;47.520;19.144;2023-04-24T14:47:08;15.40;99.90
45619;DHT22;31343;47.520;19.144;2023-04-24T14:49:35;15.40;99.90
45619;DHT22;31343;47.520;19.144;2023-04-24T14:52:00;15.50;99.90
45619;DHT22;31343;47.520;19.144;2023-04-24T14:54:28;15.60;99.90
45619;DHT22;31343;47.520;19.144;2023-04-24T14:56:54;15.60;99.90
45619;DHT22;31343;47.520;19.144;2023-04-24T14:59:22;15.70;99.90
45619;DHT22;31343;47.520;19.144;2023-04-24T15:01:48;15.70;99.90
45619;DHT22;31343;47.520;19.144;2023-04-24T15:04:13;15.80;99.90
45619;DHT22;31343;47.520;19.144;2023-04-24T15:06:39;15.80;99.90
45619;DHT22;31343;47.520;19.144;2023-04-24T15:09:05;15.80;99.90
45619;DHT22;31343;47.520;19.144;2023-04-24T15:11:31;15.80;99.90
45619;DHT22;31343;47.520;19.144;2023-04-24T15:13:57;15.90;99.90
45619;DHT22;31343;47.520;19.144;2023-04-24T15:16:24;15.90;99.90
45619;DHT22;31343;47.520;19.144;2023-04-24T15:18:50;15.90;99.90
45619;DHT22;31343;47.520;19.144;2023-04-24T15:21:16;16.00;99.90
45619;DHT22;31343;47.520;19.144;2023-04-24T15:23:41;16.00;99.90
45619;DHT22;31343;47.520;19.144;2023-04-24T15:26:07;16.00;99.90